createdAt,value
2022-10-07T00:04:25.545Z,12.90
2022-10-07T00:09:28.902Z,12.80
2022-10-07T00:14:33.961Z,12.80
2022-10-07T00:19:37.313Z,12.80
2022-10-07T00:24:40.915Z,12.80
2022-10-07T00:29:48.783Z,12.80
2022-10-07T00:34:52.318Z,12.70
2022-10-07T00:39:55.571Z,12.60
2022-10-07T00:45:05.362Z,12.50
2022-10-07T00:50:12.482Z,12.50
2022-10-07T00:55:22.106Z,12.40
2022-10-07T01:00:26.702Z,12.30
2022-10-07T01:05:30.298Z,12.30
2022-10-07T01:10:40.709Z,12.20
2022-10-07T01:15:52.298Z,12.20
2022-10-07T01:21:01.375Z,12.20
2022-10-07T01:26:39.297Z,12.20
2022-10-07T01:31:48.852Z,12.10
2022-10-07T01:36:55.402Z,12.10
2022-10-07T01:42:00.949Z,12.00
2022-10-07T01:47:04.670Z,12.00
2022-10-07T01:52:25.192Z,11.90
2022-10-07T01:57:40.033Z,12.00
2022-10-07T02:03:01.629Z,11.90
2022-10-07T02:08:16.459Z,11.90
2022-10-07T02:13:29.763Z,12.00
2022-10-07T02:18:36.384Z,11.90
2022-10-07T02:23:43.193Z,11.90
2022-10-07T02:28:53.849Z,11.90
2022-10-07T02:33:58.731Z,11.80
2022-10-07T02:39:02.487Z,11.80
2022-10-07T02:44:15.817Z,11.70
2022-10-07T02:49:21.940Z,11.60
2022-10-07T02:54:28.626Z,11.50
2022-10-07T02:59:34.950Z,11.40
2022-10-07T03:04:39.068Z,11.20
2022-10-07T03:09:43.964Z,11.10
2022-10-07T03:14:50.020Z,11.10
2022-10-07T03:19:53.233Z,11.10
2022-10-07T03:24:59.253Z,11.10
2022-10-07T03:30:04.515Z,11.10
2022-10-07T03:35:09.583Z,11.10
2022-10-07T03:40:12.809Z,11.00
2022-10-07T03:45:17.562Z,11.00
2022-10-07T03:50:21.914Z,10.80
2022-10-07T03:55:25.168Z,10.70
2022-10-07T04:00:29.922Z,10.60
2022-10-07T04:05:33.276Z,10.40
2022-10-07T04:10:37.014Z,10.30
2022-10-07T04:15:41.673Z,10.20
2022-10-07T04:20:45.279Z,10.10
2022-10-07T04:25:50.196Z,10.00
2022-10-07T04:30:56.375Z,9.90
2022-10-07T04:36:05.828Z,9.70
2022-10-07T04:41:09.490Z,9.60
2022-10-07T04:46:14.840Z,9.50
2022-10-07T04:51:18.462Z,9.40
2022-10-07T04:56:22.416Z,9.30
2022-10-07T05:01:52.043Z,9.20
2022-10-07T05:06:55.509Z,9.10
2022-10-07T05:11:58.796Z,9.00
2022-10-07T05:17:03.880Z,9.00
2022-10-07T05:22:07.567Z,9.00
2022-10-07T05:27:10.913Z,8.90
2022-10-07T05:32:15.810Z,8.80
2022-10-07T05:37:39.150Z,8.70
2022-10-07T05:42:42.969Z,8.70
2022-10-07T05:47:48.330Z,8.70
2022-10-07T05:52:52.121Z,8.80
2022-10-07T05:57:55.786Z,8.90
2022-10-07T06:03:02.732Z,9.00
2022-10-07T06:08:06.118Z,9.00
2022-10-07T06:13:10.661Z,9.20
2022-10-07T06:18:15.540Z,9.50
2022-10-07T06:23:18.811Z,9.80
2022-10-07T06:28:22.354Z,10.20
2022-10-07T06:33:26.968Z,10.60
2022-10-07T06:38:30.196Z,10.90
2022-10-07T06:43:35.572Z,11.30
2022-10-07T06:48:42.438Z,11.60
2022-10-07T06:53:55.209Z,11.90
2022-10-07T06:58:58.488Z,12.30
2022-10-07T07:04:04.041Z,12.50
2022-10-07T07:09:07.294Z,12.80
2022-10-07T07:14:13.808Z,13.20
2022-10-07T07:19:18.514Z,13.50
2022-10-07T07:24:21.736Z,13.80
2022-10-07T07:29:26.793Z,14.20
2022-10-07T07:34:33.870Z,14.30
2022-10-07T07:39:37.149Z,14.50
2022-10-07T07:44:40.572Z,14.70
2022-10-07T07:49:46.147Z,14.80
2022-10-07T07:54:49.849Z,14.90
2022-10-07T07:59:53.196Z,15.30
2022-10-07T08:04:58.151Z,15.70
2022-10-07T08:10:01.347Z,16.50
2022-10-07T08:15:04.870Z,17.20
2022-10-07T08:20:12.107Z,18.10
2022-10-07T08:25:16.886Z,19.50
2022-10-07T08:30:20.221Z,20.40
2022-10-07T08:35:24.887Z,21.30
2022-10-07T08:40:28.280Z,22.30
2022-10-07T08:45:34.353Z,23.60
2022-10-07T08:50:50.613Z,22.70
2022-10-07T08:55:56.410Z,22.50
2022-10-07T09:01:03.979Z,22.20
2022-10-07T09:06:19.020Z,21.70
2022-10-07T09:11:26.002Z,21.50
2022-10-07T09:16:33.708Z,20.80
2022-10-07T09:21:44.309Z,21.10
2022-10-07T09:26:47.606Z,21.80
2022-10-07T09:31:51.040Z,21.10
2022-10-07T09:37:20.818Z,20.20
2022-10-07T09:42:32.678Z,20.20
2022-10-07T09:47:46.292Z,19.90
2022-10-07T09:58:27.543Z,19.50
2022-10-07T10:03:32.799Z,19.10
2022-10-07T10:08:40.010Z,19.00
2022-10-07T10:13:43.399Z,18.80
2022-10-07T10:18:55.038Z,18.50
2022-10-07T10:24:03.814Z,18.40
2022-10-07T10:29:15.104Z,18.40
2022-10-07T10:34:35.316Z,18.50
2022-10-07T10:39:57.632Z,18.40
2022-10-07T10:45:27.756Z,18.20
2022-10-07T10:50:41.739Z,18.50
2022-10-07T10:56:10.759Z,18.80
2022-10-07T11:01:26.478Z,18.90
2022-10-07T11:06:33.829Z,19.00
2022-10-07T11:11:38.560Z,18.90
2022-10-07T11:16:45.311Z,18.40
2022-10-07T11:21:51.892Z,18.40
2022-10-07T11:27:01.437Z,18.50
2022-10-07T11:32:14.870Z,18.90
2022-10-07T11:37:24.707Z,18.80
2022-10-07T11:42:34.779Z,18.50
2022-10-07T11:47:43.203Z,18.90
2022-10-07T11:52:49.428Z,19.00
2022-10-07T11:58:00.494Z,19.00
2022-10-07T12:03:13.890Z,18.90
2022-10-07T12:08:31.001Z,18.80
2022-10-07T12:13:41.684Z,19.30
2022-10-07T12:19:23.064Z,19.50
2022-10-07T12:24:28.328Z,19.30
2022-10-07T12:29:58.722Z,19.80
2022-10-07T12:35:36.419Z,19.90
2022-10-07T12:40:40.701Z,19.90
2022-10-07T12:45:45.697Z,19.90
2022-10-07T12:50:52.254Z,19.80
2022-10-07T12:55:57.607Z,20.00
2022-10-07T13:01:16.929Z,19.50
2022-10-07T13:06:46.034Z,19.20
2022-10-07T13:12:13.077Z,19.00
2022-10-07T13:17:40.950Z,19.10
2022-10-07T13:22:48.038Z,19.00
2022-10-07T13:27:56.101Z,19.20
2022-10-07T13:33:20.520Z,19.30
2022-10-07T13:38:25.512Z,19.30
2022-10-07T13:43:30.479Z,19.30
2022-10-07T13:48:41.799Z,19.30
2022-10-07T13:53:55.109Z,19.30
2022-10-07T13:58:59.409Z,19.20
2022-10-07T14:04:16.500Z,19.30
2022-10-07T14:09:26.553Z,19.20
2022-10-07T14:14:34.906Z,19.10
2022-10-07T14:19:40.666Z,18.70
2022-10-07T14:24:52.311Z,18.80
2022-10-07T14:29:55.711Z,18.90
2022-10-07T14:35:22.998Z,19.10
2022-10-07T14:40:26.396Z,19.20
2022-10-07T14:45:30.169Z,19.20
2022-10-07T14:50:36.220Z,19.20
2022-10-07T14:55:40.543Z,19.30
2022-10-07T15:00:43.870Z,19.40
2022-10-07T15:05:48.915Z,19.50
2022-10-07T15:10:52.451Z,19.20
2022-10-07T15:15:55.880Z,19.10
2022-10-07T15:21:00.566Z,19.10
2022-10-07T15:26:04.321Z,18.70
2022-10-07T15:31:11.111Z,18.50
2022-10-07T15:36:17.849Z,18.40
2022-10-07T15:41:32.496Z,18.20
2022-10-07T15:46:36.646Z,18.00
2022-10-07T15:51:41.692Z,17.80
2022-10-07T15:56:45.370Z,17.70
2022-10-07T16:01:51.976Z,17.50
2022-10-07T16:06:56.658Z,17.40
2022-10-07T16:12:00.285Z,17.30
2022-10-07T16:17:04.308Z,17.10
2022-10-07T16:22:09.987Z,16.90
2022-10-07T16:27:13.238Z,16.70
2022-10-07T16:32:16.824Z,16.50
2022-10-07T16:37:21.406Z,16.40
2022-10-07T16:42:24.717Z,16.10
2022-10-07T16:47:27.973Z,15.80
2022-10-07T16:52:34.405Z,15.50
2022-10-07T16:57:37.601Z,15.30
2022-10-07T17:02:40.813Z,15.20
2022-10-07T17:07:45.556Z,15.10
2022-10-07T17:12:48.982Z,15.00
2022-10-07T17:17:58.573Z,14.90
2022-10-07T17:23:04.268Z,14.80
2022-10-07T17:28:07.564Z,14.50
2022-10-07T17:33:17.846Z,14.40
2022-10-07T17:38:22.591Z,14.20
2022-10-07T17:43:25.913Z,14.10
2022-10-07T17:48:29.314Z,14.00
2022-10-07T17:53:34.940Z,13.80
2022-10-07T17:58:42.975Z,13.70
2022-10-07T18:03:52.334Z,13.60
2022-10-07T18:09:01.177Z,13.60
2022-10-07T18:14:31.330Z,13.50
2022-10-07T18:19:39.702Z,13.40
2022-10-07T18:24:44.626Z,13.30
2022-10-07T18:29:47.974Z,13.30
2022-10-07T18:34:51.300Z,13.20
2022-10-07T18:39:56.977Z,13.10
2022-10-07T18:45:00.314Z,13.10
2022-10-07T18:50:04.671Z,13.10
2022-10-07T18:55:10.709Z,13.10
2022-10-07T19:00:19.254Z,13.10
2022-10-07T19:05:22.501Z,13.00
2022-10-07T19:10:27.316Z,13.00
2022-10-07T19:15:30.626Z,12.80
2022-10-07T19:20:36.443Z,12.60
2022-10-07T19:25:51.257Z,12.50
2022-10-07T19:30:57.338Z,12.30
2022-10-07T19:36:02.516Z,12.20
2022-10-07T19:41:10.497Z,12.20
2022-10-07T19:46:14.517Z,12.10
2022-10-07T19:51:19.825Z,12.00
2022-10-07T19:56:29.133Z,11.90
2022-10-07T20:01:36.309Z,11.90
2022-10-07T20:06:39.641Z,11.90
2022-10-07T20:11:44.641Z,12.00
2022-10-07T20:16:48.140Z,12.00
2022-10-07T20:21:51.480Z,11.90
2022-10-07T20:26:56.442Z,11.90
2022-10-07T20:31:59.766Z,11.80
2022-10-07T20:37:02.975Z,11.80
2022-10-07T20:42:25.814Z,11.80
2022-10-07T20:47:31.125Z,11.80
2022-10-07T20:52:36.834Z,11.80
2022-10-07T20:57:41.888Z,11.80
2022-10-07T21:02:48.386Z,11.80
2022-10-07T21:07:54.651Z,11.70
2022-10-07T21:13:00.442Z,11.70
2022-10-07T21:18:03.662Z,11.70
2022-10-07T21:23:06.966Z,11.80
2022-10-07T21:28:11.851Z,11.70
2022-10-07T21:33:15.121Z,11.80
2022-10-07T21:38:18.321Z,11.80
2022-10-07T21:43:24.033Z,11.80
2022-10-07T21:48:30.216Z,11.80
2022-10-07T21:53:34.365Z,11.80
2022-10-07T21:58:39.276Z,11.70
2022-10-07T22:03:43.256Z,11.70
2022-10-07T22:08:48.106Z,11.70
2022-10-07T22:13:55.180Z,11.60
2022-10-07T22:18:58.877Z,11.60
2022-10-07T22:24:04.424Z,11.50
2022-10-07T22:29:10.808Z,11.50
2022-10-07T22:34:46.269Z,11.60
2022-10-07T22:39:51.529Z,11.60
2022-10-07T22:44:56.590Z,11.60
2022-10-07T22:50:00.619Z,11.50
2022-10-07T22:55:05.013Z,11.50
2022-10-07T23:00:11.592Z,11.50
2022-10-07T23:05:16.409Z,11.50
2022-10-07T23:10:19.773Z,11.40
2022-10-07T23:15:27.612Z,11.40
2022-10-07T23:20:30.952Z,11.30
2022-10-07T23:25:34.262Z,11.40
2022-10-07T23:30:39.784Z,11.40
2022-10-07T23:35:44.663Z,11.40
2022-10-07T23:40:49.069Z,11.40
2022-10-07T23:45:53.776Z,11.50
2022-10-07T23:50:59.239Z,11.50
2022-10-07T23:56:02.796Z,11.60
